Aeroporto :
LOGIN :

Iscrizione | Disclaimer

   EN    FR    IT 

 










Sommario :    VFR   VFR Marginale   IFR   IFR Intensivo   IFR Molto Intensivo
Visibilità : 
Base nubi : 
>= 8 km
>= 3000ft
5 / 8 km
1000 / 3000 ft
1500m / 5 km
500 / 1000 ft
800 / 1500m
200 / 500 ft
< 800m
< 200 ft
Simboli :   Temporali  Nebbia  Neve Forte  Precipitazioni Forti  Vento > 20 kt
SIGMETs :   Varie  Temporali  Ghiacco  Turbolenza  Onda orograficha  Ceneri Vulcaniche






- Altitudine del aeroporto : 407 ft


EGDM - MoD Boscombe Down Amesbury

ULTIMO METAR :
  • 250920Z 32022KT 9999 FEW027 11/06 Q1004 NOSIG RMK BLU BLU

METARs OBSOLETI :
  • 250850Z 32021KT 9999 FEW020 10/05 Q1004 NOSIG RMK BLU BLU
  • 250819Z 33018KT 9999 FEW030 08/05 Q1003 NOSIG RMK BLU BLU
  • 250750Z 32015KT 9999 FEW030 07/05 Q1003 BECMG 32018G28KT RMK BLU BECMG BLU
  • 250720Z 32015KT 9999 FEW030 SCT200 07/05 Q1002 BECMG 32015G25KT RMK BLU BECMG BLU
  • 250650Z 32014KT 9999 FEW012 SCT220 07/05 Q1002 BECMG 32015G25KT RMK BLU BECMG BLU

TAF AMD TAF EGDM
Valido dal 25 a 09 ore il 25 a 17 ore UTC


250856Z 2509/2517 32015G25KT 9999 FEW030
BECMG 2509/2513 31025G35KT
BECMG 2515/2517 30015G25KT



MetMap, La meteo Aeronautica in un colpo d'occhio ! - Copyright ORBIFLY Dicembre 2007 - Disclaimer

ORBIFLY MET'MAP TEAM :

Programmazione e sviluppo : Alexandra Zaïnal
Concezione : Baudouin d'Aumeries
Aiuto per la programmazione : Marc-Olivier Méhu
Supporto tecnico e logistico : Manuel Goepfert
Aiuto per la traduzione : Arnaldo La Scala

Contatto : metmap@orbifly.com




FONTI E CREDITI :

   NOAA